Terminal Aerodrome Forecast
Issued by NWS

Home | Current Version | Previous Version | Text Only | Print | Product List | Glossary On
Versions: 1 2 3 4 5 6 7 8 9 10 11 12 13 14 15 16 17 18 19 20 21 22 23 24 25 26
000
FTUS41 KPHI 231740
TAFMIV
TAF
KMIV 231740Z 2318/2418 10007KT P6SM SCT030 OVC130
      TEMPO 2318/2319 BKN030
     FM232300 10004KT P6SM OVC110
     FM240400 04007KT P6SM OVC070
      TEMPO 2404/2408 4SM -SHRA OVC015
     FM241500 03009KT P6SM BKN025
     FM241700 04008KT P6SM BKN050=

USA.gov is the U.S. government's official web portal to all federal, state and local government web resources and services.